sensor_id;sensor_type;location;lat;lon;timestamp;temperature;humidity
34147;DHT22;20423;49.448;9.056;2022-07-29T00:02:13;16.80;99.90
34147;DHT22;20423;49.448;9.056;2022-07-29T00:04:44;16.70;99.90
34147;DHT22;20423;49.448;9.056;2022-07-29T00:07:10;16.60;99.90
34147;DHT22;20423;49.448;9.056;2022-07-29T00:09:36;16.50;99.90
34147;DHT22;20423;49.448;9.056;2022-07-29T00:12:02;16.50;99.90
34147;DHT22;20423;49.448;9.056;2022-07-29T00:14:28;16.40;99.90
34147;DHT22;20423;49.448;9.056;2022-07-29T00:16:54;16.30;99.90
34147;DHT22;20423;49.448;9.056;2022-07-29T00:19:27;16.20;99.90
34147;DHT22;20423;49.448;9.056;2022-07-29T00:21:52;16.20;99.90
34147;DHT22;20423;49.448;9.056;2022-07-29T00:24:18;16.00;99.90
34147;DHT22;20423;49.448;9.056;2022-07-29T00:26:44;16.00;99.90
34147;DHT22;20423;49.448;9.056;2022-07-29T00:29:09;15.90;99.90
34147;DHT22;20423;49.448;9.056;2022-07-29T00:31:43;15.90;99.90
34147;DHT22;20423;49.448;9.056;2022-07-29T00:34:08;15.90;99.90
34147;DHT22;20423;49.448;9.056;2022-07-29T00:37:01;15.90;99.90
34147;DHT22;20423;49.448;9.056;2022-07-29T00:39:27;16.00;99.90
34147;DHT22;20423;49.448;9.056;2022-07-29T00:41:53;16.00;99.90
34147;DHT22;20423;49.448;9.056;2022-07-29T00:44:19;16.00;99.90
34147;DHT22;20423;49.448;9.056;2022-07-29T00:46:45;16.00;99.90
34147;DHT22;20423;49.448;9.056;2022-07-29T00:49:16;16.00;99.90
34147;DHT22;20423;49.448;9.056;2022-07-29T00:51:41;15.90;99.90
34147;DHT22;20423;49.448;9.056;2022-07-29T00:54:08;15.90;99.90
34147;DHT22;20423;49.448;9.056;2022-07-29T00:56:33;15.90;99.90
34147;DHT22;20423;49.448;9.056;2022-07-29T00:58:59;15.90;99.90
34147;DHT22;20423;49.448;9.056;2022-07-29T01:01:26;15.90;99.90
34147;DHT22;20423;49.448;9.056;2022-07-29T01:03:59;15.80;99.90
34147;DHT22;20423;49.448;9.056;2022-07-29T01:06:25;15.70;99.90
34147;DHT22;20423;49.448;9.056;2022-07-29T01:08:51;15.60;99.90
34147;DHT22;20423;49.448;9.056;2022-07-29T01:11:18;15.50;99.90
34147;DHT22;20423;49.448;9.056;2022-07-29T01:13:53;15.30;99.90
34147;DHT22;20423;49.448;9.056;2022-07-29T01:16:39;15.30;99.90
34147;DHT22;20423;49.448;9.056;2022-07-29T01:28:05;15.30;99.90
34147;DHT22;20423;49.448;9.056;2022-07-29T01:30:35;15.30;99.90
34147;DHT22;20423;49.448;9.056;2022-07-29T01:33:07;15.40;99.90
34147;DHT22;20423;49.448;9.056;2022-07-29T01:35:59;15.40;99.90
34147;DHT22;20423;49.448;9.056;2022-07-29T01:38:37;15.40;99.90
34147;DHT22;20423;49.448;9.056;2022-07-29T01:41:15;15.50;99.90
34147;DHT22;20423;49.448;9.056;2022-07-29T01:43:51;15.50;99.90
34147;DHT22;20423;49.448;9.056;2022-07-29T01:46:54;15.50;99.90
34147;DHT22;20423;49.448;9.056;2022-07-29T01:49:25;15.50;99.90
34147;DHT22;20423;49.448;9.056;2022-07-29T01:52:13;15.40;99.90
34147;DHT22;20423;49.448;9.056;2022-07-29T01:54:43;15.40;99.90
34147;DHT22;20423;49.448;9.056;2022-07-29T01:57:15;15.30;99.90
34147;DHT22;20423;49.448;9.056;2022-07-29T01:59:43;15.40;99.90
34147;DHT22;20423;49.448;9.056;2022-07-29T02:02:11;15.40;99.90
34147;DHT22;20423;49.448;9.056;2022-07-29T02:04:40;15.50;99.90
34147;DHT22;20423;49.448;9.056;2022-07-29T02:07:18;15.60;99.90
34147;DHT22;20423;49.448;9.056;2022-07-29T02:09:45;15.60;99.90
34147;DHT22;20423;49.448;9.056;2022-07-29T02:12:14;15.50;99.90
34147;DHT22;20423;49.448;9.056;2022-07-29T02:14:52;15.60;99.90
34147;DHT22;20423;49.448;9.056;2022-07-29T02:17:23;15.60;99.90
34147;DHT22;20423;49.448;9.056;2022-07-29T02:19:52;15.60;99.90
34147;DHT22;20423;49.448;9.056;2022-07-29T02:22:30;15.60;99.90
34147;DHT22;20423;49.448;9.056;2022-07-29T02:24:57;15.60;99.90
34147;DHT22;20423;49.448;9.056;2022-07-29T02:27:24;15.60;99.90
34147;DHT22;20423;49.448;9.056;2022-07-29T02:29:52;15.60;99.90
34147;DHT22;20423;49.448;9.056;2022-07-29T02:32:26;15.60;99.90
34147;DHT22;20423;49.448;9.056;2022-07-29T02:34:53;15.60;99.90
34147;DHT22;20423;49.448;9.056;2022-07-29T02:37:20;15.70;99.90
34147;DHT22;20423;49.448;9.056;2022-07-29T02:39:48;15.70;99.90
34147;DHT22;20423;49.448;9.056;2022-07-29T02:42:23;15.70;99.90
34147;DHT22;20423;49.448;9.056;2022-07-29T02:44:49;15.90;99.90
34147;DHT22;20423;49.448;9.056;2022-07-29T02:47:20;15.90;99.90
34147;DHT22;20423;49.448;9.056;2022-07-29T02:50:04;16.00;99.90
34147;DHT22;20423;49.448;9.056;2022-07-29T02:52:41;16.00;99.90
34147;DHT22;20423;49.448;9.056;2022-07-29T02:57:51;16.10;99.90
34147;DHT22;20423;49.448;9.056;2022-07-29T03:00:21;16.10;99.90
34147;DHT22;20423;49.448;9.056;2022-07-29T03:02:52;16.00;99.90
34147;DHT22;20423;49.448;9.056;2022-07-29T03:05:20;16.00;99.90
34147;DHT22;20423;49.448;9.056;2022-07-29T03:07:49;15.90;99.90
34147;DHT22;20423;49.448;9.056;2022-07-29T03:10:16;15.90;99.90
34147;DHT22;20423;49.448;9.056;2022-07-29T03:12:50;15.80;99.90
34147;DHT22;20423;49.448;9.056;2022-07-29T03:15:17;15.70;99.90
34147;DHT22;20423;49.448;9.056;2022-07-29T03:17:43;15.50;99.90
34147;DHT22;20423;49.448;9.056;2022-07-29T03:20:10;15.40;99.90
34147;DHT22;20423;49.448;9.056;2022-07-29T03:22:41;15.40;99.90
34147;DHT22;20423;49.448;9.056;2022-07-29T03:25:14;15.30;99.90
34147;DHT22;20423;49.448;9.056;2022-07-29T03:27:40;15.40;99.90
34147;DHT22;20423;49.448;9.056;2022-07-29T03:30:07;15.40;99.90
34147;DHT22;20423;49.448;9.056;2022-07-29T03:32:33;15.60;99.90
34147;DHT22;20423;49.448;9.056;2022-07-29T03:35:06;15.70;99.90
34147;DHT22;20423;49.448;9.056;2022-07-29T03:37:32;15.80;99.90
34147;DHT22;20423;49.448;9.056;2022-07-29T03:40:01;15.90;99.90
34147;DHT22;20423;49.448;9.056;2022-07-29T03:42:32;16.00;99.90
34147;DHT22;20423;49.448;9.056;2022-07-29T03:45:06;16.10;99.90
34147;DHT22;20423;49.448;9.056;2022-07-29T03:47:34;16.20;99.90
34147;DHT22;20423;49.448;9.056;2022-07-29T03:50:05;16.20;99.90
34147;DHT22;20423;49.448;9.056;2022-07-29T03:52:31;16.30;99.90
34147;DHT22;20423;49.448;9.056;2022-07-29T03:55:04;16.30;99.90
34147;DHT22;20423;49.448;9.056;2022-07-29T03:57:31;16.40;99.90
34147;DHT22;20423;49.448;9.056;2022-07-29T03:59:57;16.40;99.90
34147;DHT22;20423;49.448;9.056;2022-07-29T04:02:24;16.40;99.90
34147;DHT22;20423;49.448;9.056;2022-07-29T04:04:51;16.50;99.90
34147;DHT22;20423;49.448;9.056;2022-07-29T04:07:26;16.60;99.90
34147;DHT22;20423;49.448;9.056;2022-07-29T04:09:52;16.70;99.90
34147;DHT22;20423;49.448;9.056;2022-07-29T04:12:17;16.80;99.90
34147;DHT22;20423;49.448;9.056;2022-07-29T04:14:43;16.80;99.90
34147;DHT22;20423;49.448;9.056;2022-07-29T04:17:09;16.90;99.90
34147;DHT22;20423;49.448;9.056;2022-07-29T04:19:39;17.00;99.90
34147;DHT22;20423;49.448;9.056;2022-07-29T04:22:04;17.00;99.90
34147;DHT22;20423;49.448;9.056;2022-07-29T04:24:30;17.10;99.90
34147;DHT22;20423;49.448;9.056;2022-07-29T04:26:56;17.10;99.90
34147;DHT22;20423;49.448;9.056;2022-07-29T04:29:22;17.20;99.90
34147;DHT22;20423;49.448;9.056;2022-07-29T04:31:47;17.20;99.90
34147;DHT22;20423;49.448;9.056;2022-07-29T04:34:22;17.30;99.90
34147;DHT22;20423;49.448;9.056;2022-07-29T04:36:48;17.40;99.90
34147;DHT22;20423;49.448;9.056;2022-07-29T04:39:13;17.40;99.90
34147;DHT22;20423;49.448;9.056;2022-07-29T04:41:40;17.40;99.90
34147;DHT22;20423;49.448;9.056;2022-07-29T04:44:05;17.50;99.90
34147;DHT22;20423;49.448;9.056;2022-07-29T04:46:35;17.60;99.90
34147;DHT22;20423;49.448;9.056;2022-07-29T04:49:02;17.70;99.90
34147;DHT22;20423;49.448;9.056;2022-07-29T04:51:28;17.80;99.90
34147;DHT22;20423;49.448;9.056;2022-07-29T04:53:54;17.80;99.90
34147;DHT22;20423;49.448;9.056;2022-07-29T04:56:19;17.80;99.90
34147;DHT22;20423;49.448;9.056;2022-07-29T04:58:53;17.90;99.90
34147;DHT22;20423;49.448;9.056;2022-07-29T05:01:19;17.90;99.90
34147;DHT22;20423;49.448;9.056;2022-07-29T05:03:45;18.00;99.90
34147;DHT22;20423;49.448;9.056;2022-07-29T05:06:11;18.00;99.90
34147;DHT22;20423;49.448;9.056;2022-07-29T05:08:37;17.90;99.90
34147;DHT22;20423;49.448;9.056;2022-07-29T05:11:03;17.90;99.90
34147;DHT22;20423;49.448;9.056;2022-07-29T05:13:37;17.80;99.90
34147;DHT22;20423;49.448;9.056;2022-07-29T05:16:03;17.80;99.90
34147;DHT22;20423;49.448;9.056;2022-07-29T05:18:29;17.70;99.90
34147;DHT22;20423;49.448;9.056;2022-07-29T05:20:55;17.80;99.90
34147;DHT22;20423;49.448;9.056;2022-07-29T05:23:21;17.80;99.90
34147;DHT22;20423;49.448;9.056;2022-07-29T05:25:51;17.80;99.90
34147;DHT22;20423;49.448;9.056;2022-07-29T05:28:17;18.00;99.90
34147;DHT22;20423;49.448;9.056;2022-07-29T05:30:43;18.00;99.90
34147;DHT22;20423;49.448;9.056;2022-07-29T05:33:10;18.10;99.90
34147;DHT22;20423;49.448;9.056;2022-07-29T05:35:36;18.20;99.90
34147;DHT22;20423;49.448;9.056;2022-07-29T05:38:10;18.20;99.90
34147;DHT22;20423;49.448;9.056;2022-07-29T05:40:36;18.40;99.90
34147;DHT22;20423;49.448;9.056;2022-07-29T05:43:01;18.40;99.90
34147;DHT22;20423;49.448;9.056;2022-07-29T05:45:27;18.40;99.90
34147;DHT22;20423;49.448;9.056;2022-07-29T05:47:53;18.40;99.90
34147;DHT22;20423;49.448;9.056;2022-07-29T05:50:19;18.40;99.90
34147;DHT22;20423;49.448;9.056;2022-07-29T05:52:53;18.40;99.90
34147;DHT22;20423;49.448;9.056;2022-07-29T05:55:19;18.30;99.90
34147;DHT22;20423;49.448;9.056;2022-07-29T05:57:45;18.40;99.90
34147;DHT22;20423;49.448;9.056;2022-07-29T06:03:10;18.70;99.90
34147;DHT22;20423;49.448;9.056;2022-07-29T06:05:45;18.90;99.90
34147;DHT22;20423;49.448;9.056;2022-07-29T06:08:16;19.10;99.90
34147;DHT22;20423;49.448;9.056;2022-07-29T06:10:45;19.20;99.90
34147;DHT22;20423;49.448;9.056;2022-07-29T06:13:19;19.30;99.90
34147;DHT22;20423;49.448;9.056;2022-07-29T06:15:44;19.40;99.90
34147;DHT22;20423;49.448;9.056;2022-07-29T06:18:12;19.60;99.90
34147;DHT22;20423;49.448;9.056;2022-07-29T06:20:38;19.70;99.90
34147;DHT22;20423;49.448;9.056;2022-07-29T06:23:04;19.80;99.90
34147;DHT22;20423;49.448;9.056;2022-07-29T06:25:40;20.00;99.90
34147;DHT22;20423;49.448;9.056;2022-07-29T06:28:06;20.20;99.90
34147;DHT22;20423;49.448;9.056;2022-07-29T06:30:32;20.30;99.90
34147;DHT22;20423;49.448;9.056;2022-07-29T06:32:58;20.20;99.90
34147;DHT22;20423;49.448;9.056;2022-07-29T06:35:24;20.20;99.90
34147;DHT22;20423;49.448;9.056;2022-07-29T06:37:57;20.10;99.90
34147;DHT22;20423;49.448;9.056;2022-07-29T06:40:23;20.20;99.90
34147;DHT22;20423;49.448;9.056;2022-07-29T06:43:10;20.20;99.90
34147;DHT22;20423;49.448;9.056;2022-07-29T06:45:36;20.20;99.90
34147;DHT22;20423;49.448;9.056;2022-07-29T06:48:02;20.20;99.90
34147;DHT22;20423;49.448;9.056;2022-07-29T06:50:28;20.30;99.90
34147;DHT22;20423;49.448;9.056;2022-07-29T06:52:53;20.50;99.90
34147;DHT22;20423;49.448;9.056;2022-07-29T06:55:19;20.60;99.90
34147;DHT22;20423;49.448;9.056;2022-07-29T06:57:52;20.60;99.90
34147;DHT22;20423;49.448;9.056;2022-07-29T07:00:18;20.60;99.90
34147;DHT22;20423;49.448;9.056;2022-07-29T07:02:44;20.70;99.90
34147;DHT22;20423;49.448;9.056;2022-07-29T07:05:09;20.80;99.90
34147;DHT22;20423;49.448;9.056;2022-07-29T07:07:35;21.10;99.90
34147;DHT22;20423;49.448;9.056;2022-07-29T07:10:01;21.70;99.90
34147;DHT22;20423;49.448;9.056;2022-07-29T07:12:26;21.80;99.90
34147;DHT22;20423;49.448;9.056;2022-07-29T07:14:52;21.80;99.90
34147;DHT22;20423;49.448;9.056;2022-07-29T07:17:18;21.70;99.90
34147;DHT22;20423;49.448;9.056;2022-07-29T07:19:44;21.60;99.90
34147;DHT22;20423;49.448;9.056;2022-07-29T07:22:10;21.50;99.90
34147;DHT22;20423;49.448;9.056;2022-07-29T07:24:36;21.80;99.90
34147;DHT22;20423;49.448;9.056;2022-07-29T07:27:01;21.90;99.90
34147;DHT22;20423;49.448;9.056;2022-07-29T07:29:27;22.20;99.90
34147;DHT22;20423;49.448;9.056;2022-07-29T07:31:53;22.70;99.90
34147;DHT22;20423;49.448;9.056;2022-07-29T07:34:19;22.80;99.90
34147;DHT22;20423;49.448;9.056;2022-07-29T07:36:45;23.10;99.90
34147;DHT22;20423;49.448;9.056;2022-07-29T07:39:11;23.00;99.90
34147;DHT22;20423;49.448;9.056;2022-07-29T07:41:36;22.70;99.90
34147;DHT22;20423;49.448;9.056;2022-07-29T07:44:02;22.50;99.90
34147;DHT22;20423;49.448;9.056;2022-07-29T07:46:28;22.30;99.90
34147;DHT22;20423;49.448;9.056;2022-07-29T07:48:53;22.10;99.90
34147;DHT22;20423;49.448;9.056;2022-07-29T07:51:19;22.10;99.90
34147;DHT22;20423;49.448;9.056;2022-07-29T07:53:51;22.50;99.90
34147;DHT22;20423;49.448;9.056;2022-07-29T07:56:17;22.80;99.90
34147;DHT22;20423;49.448;9.056;2022-07-29T07:58:43;22.80;99.90
34147;DHT22;20423;49.448;9.056;2022-07-29T08:01:09;22.50;99.90
34147;DHT22;20423;49.448;9.056;2022-07-29T08:03:35;22.10;99.90
34147;DHT22;20423;49.448;9.056;2022-07-29T08:06:02;21.70;99.90
34147;DHT22;20423;49.448;9.056;2022-07-29T08:08:28;21.90;99.90
34147;DHT22;20423;49.448;9.056;2022-07-29T08:10:54;22.80;99.90
34147;DHT22;20423;49.448;9.056;2022-07-29T08:13:26;24.80;99.90
34147;DHT22;20423;49.448;9.056;2022-07-29T08:15:59;26.70;99.90
34147;DHT22;20423;49.448;9.056;2022-07-29T08:18:38;27.90;99.90
34147;DHT22;20423;49.448;9.056;2022-07-29T08:21:04;28.40;99.90
34147;DHT22;20423;49.448;9.056;2022-07-29T08:23:30;29.20;99.90
34147;DHT22;20423;49.448;9.056;2022-07-29T08:26:11;29.10;99.90
34147;DHT22;20423;49.448;9.056;2022-07-29T08:28:38;27.80;99.90
34147;DHT22;20423;49.448;9.056;2022-07-29T08:31:05;26.90;99.90
34147;DHT22;20423;49.448;9.056;2022-07-29T08:33:31;25.90;99.90
34147;DHT22;20423;49.448;9.056;2022-07-29T08:35:57;25.60;99.90
34147;DHT22;20423;49.448;9.056;2022-07-29T08:38:22;26.20;99.90
34147;DHT22;20423;49.448;9.056;2022-07-29T08:40:48;27.90;99.90
34147;DHT22;20423;49.448;9.056;2022-07-29T08:43:14;28.40;99.90
34147;DHT22;20423;49.448;9.056;2022-07-29T08:45:50;28.70;99.90
34147;DHT22;20423;49.448;9.056;2022-07-29T08:48:22;29.50;99.90
34147;DHT22;20423;49.448;9.056;2022-07-29T08:50:52;29.60;99.90
34147;DHT22;20423;49.448;9.056;2022-07-29T08:53:18;30.30;99.90
34147;DHT22;20423;49.448;9.056;2022-07-29T08:55:48;30.60;99.10
34147;DHT22;20423;49.448;9.056;2022-07-29T08:58:15;30.20;98.80
34147;DHT22;20423;49.448;9.056;2022-07-29T09:00:44;30.00;98.70
34147;DHT22;20423;49.448;9.056;2022-07-29T09:03:12;29.60;98.90
34147;DHT22;20423;49.448;9.056;2022-07-29T09:06:02;29.30;99.40
34147;DHT22;20423;49.448;9.056;2022-07-29T09:08:28;29.00;98.90
34147;DHT22;20423;49.448;9.056;2022-07-29T09:10:54;28.30;99.90
34147;DHT22;20423;49.448;9.056;2022-07-29T09:13:24;27.10;99.90
34147;DHT22;20423;49.448;9.056;2022-07-29T09:15:50;27.10;99.90
34147;DHT22;20423;49.448;9.056;2022-07-29T09:18:41;27.30;99.90
34147;DHT22;20423;49.448;9.056;2022-07-29T09:21:09;28.30;99.90
34147;DHT22;20423;49.448;9.056;2022-07-29T09:26:33;28.50;99.80
34147;DHT22;20423;49.448;9.056;2022-07-29T09:28:59;28.30;99.90
34147;DHT22;20423;49.448;9.056;2022-07-29T09:31:37;28.00;99.90
34147;DHT22;20423;49.448;9.056;2022-07-29T09:34:04;28.70;99.90
34147;DHT22;20423;49.448;9.056;2022-07-29T09:37:01;29.90;97.90
34147;DHT22;20423;49.448;9.056;2022-07-29T09:39:36;30.80;96.20
34147;DHT22;20423;49.448;9.056;2022-07-29T09:42:04;31.50;95.10
34147;DHT22;20423;49.448;9.056;2022-07-29T09:44:51;32.00;93.80
34147;DHT22;20423;49.448;9.056;2022-07-29T09:47:18;32.40;92.60
34147;DHT22;20423;49.448;9.056;2022-07-29T09:49:58;32.90;92.10
34147;DHT22;20423;49.448;9.056;2022-07-29T09:52:48;32.50;91.20
34147;DHT22;20423;49.448;9.056;2022-07-29T09:55:14;31.50;91.00
34147;DHT22;20423;49.448;9.056;2022-07-29T09:57:40;30.80;91.80
34147;DHT22;20423;49.448;9.056;2022-07-29T10:00:27;29.60;92.60
34147;DHT22;20423;49.448;9.056;2022-07-29T10:03:00;29.10;93.50
34147;DHT22;20423;49.448;9.056;2022-07-29T10:05:27;29.00;93.80
34147;DHT22;20423;49.448;9.056;2022-07-29T10:07:56;28.90;94.00
34147;DHT22;20423;49.448;9.056;2022-07-29T10:10:30;29.20;93.30
34147;DHT22;20423;49.448;9.056;2022-07-29T10:13:02;29.80;93.10
34147;DHT22;20423;49.448;9.056;2022-07-29T10:15:31;30.20;92.30
34147;DHT22;20423;49.448;9.056;2022-07-29T10:18:04;29.90;93.20
34147;DHT22;20423;49.448;9.056;2022-07-29T10:21:01;30.60;92.20
34147;DHT22;20423;49.448;9.056;2022-07-29T10:26:49;29.50;92.50
34147;DHT22;20423;49.448;9.056;2022-07-29T10:41:08;30.70;92.40
34147;DHT22;20423;49.448;9.056;2022-07-29T10:43:59;31.10;92.10
34147;DHT22;20423;49.448;9.056;2022-07-29T10:46:27;30.80;91.80
34147;DHT22;20423;49.448;9.056;2022-07-29T10:49:05;31.10;91.60
34147;DHT22;20423;49.448;9.056;2022-07-29T10:54:36;31.20;91.10
34147;DHT22;20423;49.448;9.056;2022-07-29T10:57:23;31.70;90.70
34147;DHT22;20423;49.448;9.056;2022-07-29T11:07:39;31.50;90.70
34147;DHT22;20423;49.448;9.056;2022-07-29T11:23:01;30.20;92.80
34147;DHT22;20423;49.448;9.056;2022-07-29T11:25:27;29.40;93.80
34147;DHT22;20423;49.448;9.056;2022-07-29T11:27:54;30.00;92.80
34147;DHT22;20423;49.448;9.056;2022-07-29T11:30:51;29.90;92.70
34147;DHT22;20423;49.448;9.056;2022-07-29T11:33:31;30.30;92.90
34147;DHT22;20423;49.448;9.056;2022-07-29T11:36:11;30.80;92.00
34147;DHT22;20423;49.448;9.056;2022-07-29T11:38:37;31.30;91.40
34147;DHT22;20423;49.448;9.056;2022-07-29T11:41:25;31.10;91.00
34147;DHT22;20423;49.448;9.056;2022-07-29T11:44:53;31.10;91.50
34147;DHT22;20423;49.448;9.056;2022-07-29T11:47:12;30.70;91.10
34147;DHT22;20423;49.448;9.056;2022-07-29T11:49:44;30.20;91.70
34147;DHT22;20423;49.448;9.056;2022-07-29T11:52:10;30.30;91.90
34147;DHT22;20423;49.448;9.056;2022-07-29T11:54:36;30.10;91.70
34147;DHT22;20423;49.448;9.056;2022-07-29T11:57:06;29.50;91.80
34147;DHT22;20423;49.448;9.056;2022-07-29T11:59:42;29.80;92.10
34147;DHT22;20423;49.448;9.056;2022-07-29T12:02:08;29.70;91.80
34147;DHT22;20423;49.448;9.056;2022-07-29T12:04:56;29.50;92.10
34147;DHT22;20423;49.448;9.056;2022-07-29T12:07:33;28.70;92.90
34147;DHT22;20423;49.448;9.056;2022-07-29T12:09:59;28.60;93.60
34147;DHT22;20423;49.448;9.056;2022-07-29T12:12:25;29.20;92.50
34147;DHT22;20423;49.448;9.056;2022-07-29T12:14:51;29.00;92.10
34147;DHT22;20423;49.448;9.056;2022-07-29T12:17:30;28.20;92.70
34147;DHT22;20423;49.448;9.056;2022-07-29T12:19:57;27.90;93.10
34147;DHT22;20423;49.448;9.056;2022-07-29T12:22:27;28.20;93.20
34147;DHT22;20423;49.448;9.056;2022-07-29T12:24:53;28.30;93.10
34147;DHT22;20423;49.448;9.056;2022-07-29T12:27:19;28.00;93.50
34147;DHT22;20423;49.448;9.056;2022-07-29T12:29:58;27.60;93.60
34147;DHT22;20423;49.448;9.056;2022-07-29T12:32:34;28.00;93.60
34147;DHT22;20423;49.448;9.056;2022-07-29T12:35:06;27.90;92.60
34147;DHT22;20423;49.448;9.056;2022-07-29T12:37:34;27.60;93.40
34147;DHT22;20423;49.448;9.056;2022-07-29T12:40:02;27.40;93.60
34147;DHT22;20423;49.448;9.056;2022-07-29T12:42:28;27.30;93.40
34147;DHT22;20423;49.448;9.056;2022-07-29T12:44:54;27.40;94.20
34147;DHT22;20423;49.448;9.056;2022-07-29T12:47:20;28.40;93.80
34147;DHT22;20423;49.448;9.056;2022-07-29T12:49:46;29.50;92.40
34147;DHT22;20423;49.448;9.056;2022-07-29T12:52:28;30.60;91.20
34147;DHT22;20423;49.448;9.056;2022-07-29T12:54:55;31.10;90.40
34147;DHT22;20423;49.448;9.056;2022-07-29T12:57:21;30.90;90.00
34147;DHT22;20423;49.448;9.056;2022-07-29T13:02:26;29.90;90.30
34147;DHT22;20423;49.448;9.056;2022-07-29T13:04:56;30.10;90.80
34147;DHT22;20423;49.448;9.056;2022-07-29T13:07:28;30.20;90.00
34147;DHT22;20423;49.448;9.056;2022-07-29T13:10:16;30.30;89.90
34147;DHT22;20423;49.448;9.056;2022-07-29T13:13:08;30.40;86.80
34147;DHT22;20423;49.448;9.056;2022-07-29T13:16:05;29.70;90.30
34147;DHT22;20423;49.448;9.056;2022-07-29T13:18:35;29.00;91.10
34147;DHT22;20423;49.448;9.056;2022-07-29T13:21:11;28.70;92.20
34147;DHT22;20423;49.448;9.056;2022-07-29T13:23:38;28.40;92.50
34147;DHT22;20423;49.448;9.056;2022-07-29T13:26:11;28.30;92.50
34147;DHT22;20423;49.448;9.056;2022-07-29T13:28:37;28.40;92.70
34147;DHT22;20423;49.448;9.056;2022-07-29T13:31:03;28.30;90.50
34147;DHT22;20423;49.448;9.056;2022-07-29T13:33:30;28.30;90.00
34147;DHT22;20423;49.448;9.056;2022-07-29T13:35:56;28.20;90.90
34147;DHT22;20423;49.448;9.056;2022-07-29T13:42:10;29.30;87.40
34147;DHT22;20423;49.448;9.056;2022-07-29T13:44:39;30.00;85.70
34147;DHT22;20423;49.448;9.056;2022-07-29T13:47:05;30.10;84.40
34147;DHT22;20423;49.448;9.056;2022-07-29T13:50:06;30.20;84.70
34147;DHT22;20423;49.448;9.056;2022-07-29T13:52:33;30.10;85.40
34147;DHT22;20423;49.448;9.056;2022-07-29T13:55:01;30.00;85.60
34147;DHT22;20423;49.448;9.056;2022-07-29T13:57:27;29.90;86.00
34147;DHT22;20423;49.448;9.056;2022-07-29T13:59:53;29.00;87.20
34147;DHT22;20423;49.448;9.056;2022-07-29T14:02:18;28.70;87.10
34147;DHT22;20423;49.448;9.056;2022-07-29T14:04:44;28.60;86.30
34147;DHT22;20423;49.448;9.056;2022-07-29T14:07:10;28.10;86.20
34147;DHT22;20423;49.448;9.056;2022-07-29T14:09:36;27.90;87.90
34147;DHT22;20423;49.448;9.056;2022-07-29T14:12:01;27.80;87.10
34147;DHT22;20423;49.448;9.056;2022-07-29T14:14:28;27.90;88.10
34147;DHT22;20423;49.448;9.056;2022-07-29T14:16:54;28.20;88.50
34147;DHT22;20423;49.448;9.056;2022-07-29T14:19:20;28.20;88.70
34147;DHT22;20423;49.448;9.056;2022-07-29T14:25:33;28.40;86.20
34147;DHT22;20423;49.448;9.056;2022-07-29T14:27:59;28.50;86.10
34147;DHT22;20423;49.448;9.056;2022-07-29T14:30:25;28.60;85.80
34147;DHT22;20423;49.448;9.056;2022-07-29T14:33:19;28.80;85.40
34147;DHT22;20423;49.448;9.056;2022-07-29T14:35:45;29.10;84.90
34147;DHT22;20423;49.448;9.056;2022-07-29T14:38:11;29.00;84.50
34147;DHT22;20423;49.448;9.056;2022-07-29T14:40:36;28.20;86.30
34147;DHT22;20423;49.448;9.056;2022-07-29T14:43:03;27.40;88.20
34147;DHT22;20423;49.448;9.056;2022-07-29T14:45:29;27.30;89.70
34147;DHT22;20423;49.448;9.056;2022-07-29T14:47:55;27.30;89.80
34147;DHT22;20423;49.448;9.056;2022-07-29T14:50:20;27.50;88.20
34147;DHT22;20423;49.448;9.056;2022-07-29T14:52:46;27.80;87.80
34147;DHT22;20423;49.448;9.056;2022-07-29T14:55:12;27.80;86.00
34147;DHT22;20423;49.448;9.056;2022-07-29T14:57:38;28.00;86.80
34147;DHT22;20423;49.448;9.056;2022-07-29T15:00:05;28.00;86.50
34147;DHT22;20423;49.448;9.056;2022-07-29T15:02:34;28.20;87.00
34147;DHT22;20423;49.448;9.056;2022-07-29T15:05:00;28.40;85.90
34147;DHT22;20423;49.448;9.056;2022-07-29T15:07:26;28.20;85.90
34147;DHT22;20423;49.448;9.056;2022-07-29T15:09:52;28.30;86.20
34147;DHT22;20423;49.448;9.056;2022-07-29T15:12:18;28.10;86.60
34147;DHT22;20423;49.448;9.056;2022-07-29T15:14:43;28.00;85.20
34147;DHT22;20423;49.448;9.056;2022-07-29T15:17:09;27.60;85.60
34147;DHT22;20423;49.448;9.056;2022-07-29T15:19:35;27.30;86.50
34147;DHT22;20423;49.448;9.056;2022-07-29T15:22:01;27.00;86.90
34147;DHT22;20423;49.448;9.056;2022-07-29T15:24:26;26.80;88.10
34147;DHT22;20423;49.448;9.056;2022-07-29T15:26:52;26.50;88.80
34147;DHT22;20423;49.448;9.056;2022-07-29T15:29:18;26.20;92.20
34147;DHT22;20423;49.448;9.056;2022-07-29T15:32:18;26.00;92.70
34147;DHT22;20423;49.448;9.056;2022-07-29T15:34:43;26.00;93.50
34147;DHT22;20423;49.448;9.056;2022-07-29T15:37:09;25.90;93.80
34147;DHT22;20423;49.448;9.056;2022-07-29T15:39:36;25.80;94.10
34147;DHT22;20423;49.448;9.056;2022-07-29T15:42:03;25.90;94.50
34147;DHT22;20423;49.448;9.056;2022-07-29T15:44:44;26.00;94.60
34147;DHT22;20423;49.448;9.056;2022-07-29T15:47:09;26.10;94.80
34147;DHT22;20423;49.448;9.056;2022-07-29T15:49:37;26.20;94.70
34147;DHT22;20423;49.448;9.056;2022-07-29T15:52:06;26.50;94.40
34147;DHT22;20423;49.448;9.056;2022-07-29T15:54:33;26.80;94.20
34147;DHT22;20423;49.448;9.056;2022-07-29T15:56:59;26.60;94.00
34147;DHT22;20423;49.448;9.056;2022-07-29T15:59:25;26.50;94.20
34147;DHT22;20423;49.448;9.056;2022-07-29T16:01:51;26.90;94.30
34147;DHT22;20423;49.448;9.056;2022-07-29T16:04:17;27.30;94.10
34147;DHT22;20423;49.448;9.056;2022-07-29T16:06:44;27.50;93.30
34147;DHT22;20423;49.448;9.056;2022-07-29T16:09:10;27.60;93.30
34147;DHT22;20423;49.448;9.056;2022-07-29T16:11:36;27.80;92.80
34147;DHT22;20423;49.448;9.056;2022-07-29T16:14:02;28.40;92.20
34147;DHT22;20423;49.448;9.056;2022-07-29T16:16:27;28.50;91.20
34147;DHT22;20423;49.448;9.056;2022-07-29T16:18:53;29.00;91.00
34147;DHT22;20423;49.448;9.056;2022-07-29T16:21:20;29.40;90.20
34147;DHT22;20423;49.448;9.056;2022-07-29T16:23:47;29.40;90.50
34147;DHT22;20423;49.448;9.056;2022-07-29T16:26:13;29.00;89.20
34147;DHT22;20423;49.448;9.056;2022-07-29T16:28:39;28.60;89.80
34147;DHT22;20423;49.448;9.056;2022-07-29T16:31:05;28.20;90.40
34147;DHT22;20423;49.448;9.056;2022-07-29T16:33:30;27.70;90.50
34147;DHT22;20423;49.448;9.056;2022-07-29T16:35:56;27.40;90.80
34147;DHT22;20423;49.448;9.056;2022-07-29T16:38:22;27.00;91.90
34147;DHT22;20423;49.448;9.056;2022-07-29T16:40:47;26.70;91.90
34147;DHT22;20423;49.448;9.056;2022-07-29T16:43:13;26.50;92.80
34147;DHT22;20423;49.448;9.056;2022-07-29T16:45:39;26.00;93.80
34147;DHT22;20423;49.448;9.056;2022-07-29T16:48:05;25.50;94.90
34147;DHT22;20423;49.448;9.056;2022-07-29T16:50:31;25.00;96.10
34147;DHT22;20423;49.448;9.056;2022-07-29T16:52:57;24.60;97.10